Time;durP1;ratioP1;P1;durP2;ratioP2;P2;SDS_P1;SDS_P2;PMS_P1;PMS_P2;Temp;Humidity;BMP_temperature;BMP_pressure;BME280_temperature;BME280_humidity;BME280_pressure;Samples;Min_cycle;Max_cycle;Signal;HPM_P1;HPM_P2
2023/10/04 00:01:46;;;;;;;0.13;0.13;;;;;;;20.33;62.51;102366.31;5070820;28;20036;-72
2023/10/04 00:04:12;;;;;;;0.13;0.13;;;;;;;21.06;59.72;102361.22;5070690;28;20086;-72
2023/10/04 00:06:39;;;;;;;0.20;0.20;;;;;;;20.92;59.93;102373.63;5070626;28;20029;-72
2023/10/04 00:09:04;;;;;;;0.13;0.13;;;;;;;21.17;59.93;102371.16;5071117;28;20032;-73
2023/10/04 00:11:32;;;;;;;0.10;0.10;;;;;;;20.40;62.21;102381.44;5070636;28;20090;-73
2023/10/04 00:13:58;;;;;;;0.10;0.10;;;;;;;20.47;62.38;102384.00;5053074;28;20040;-73
2023/10/04 00:16:24;;;;;;;0.10;0.10;;;;;;;20.16;63.41;102380.00;5050554;28;20475;-72
2023/10/04 00:18:49;;;;;;;0.20;0.20;;;;;;;19.60;65.55;102383.75;5050216;28;20033;-72
2023/10/04 00:21:15;;;;;;;0.20;0.20;;;;;;;20.81;61.01;102378.13;5051157;28;20047;-73
2023/10/04 00:23:41;;;;;;;0.10;0.10;;;;;;;20.06;63.09;102375.22;5050330;28;20033;-73
2023/10/04 00:26:07;;;;;;;0.13;0.13;;;;;;;20.75;60.85;102381.06;5050393;28;20396;-73
2023/10/04 00:28:33;;;;;;;0.20;0.20;;;;;;;20.22;62.80;102375.47;5049744;28;20102;-72
2023/10/04 00:30:59;;;;;;;0.17;0.17;;;;;;;20.39;61.60;102382.53;5050349;28;20071;-73
2023/10/04 00:33:26;;;;;;;0.10;0.10;;;;;;;20.71;61.38;102385.41;5050792;28;20028;-71
2023/10/04 00:35:51;;;;;;;0.10;0.10;;;;;;;20.49;61.75;102376.38;5050306;28;20036;-73
2023/10/04 00:38:19;;;;;;;0.30;0.30;;;;;;;20.77;59.76;102381.66;5050138;28;20029;-71
2023/10/04 00:40:47;;;;;;;0.28;0.28;;;;;;;20.44;60.59;102385.31;5050231;28;20041;-72
2023/10/04 00:43:14;;;;;;;0.20;0.20;;;;;;;20.74;60.66;102388.44;5050272;28;20037;-72
2023/10/04 00:45:44;;;;;;;0.10;0.10;;;;;;;20.75;60.68;102381.91;5049894;28;20028;-72
2023/10/04 00:48:15;;;;;;;0.20;0.20;;;;;;;20.31;61.65;102387.59;5050263;28;20069;-73
2023/10/04 00:50:41;;;;;;;0.10;0.10;;;;;;;20.14;62.16;102385.72;5049778;28;20555;-72
2023/10/04 00:53:26;;;;;;;0.20;0.20;;;;;;;20.90;59.59;102389.44;5049113;28;20056;-74
2023/10/04 00:55:56;;;;;;;0.20;0.20;;;;;;;20.29;61.33;102382.38;5049829;28;20043;-73
2023/10/04 00:58:22;;;;;;;0.10;0.10;;;;;;;19.85;62.50;102394.25;5044009;28;20028;-73
2023/10/04 01:00:48;;;;;;;0.17;0.17;;;;;;;20.46;61.05;102394.09;5049295;28;20032;-72
2023/10/04 01:03:15;;;;;;;0.20;0.20;;;;;;;20.04;61.75;102391.03;5050136;28;20029;-73
2023/10/04 01:05:48;;;;;;;0.20;0.20;;;;;;;19.98;62.12;102386.56;5049551;28;20319;-73
2023/10/04 01:08:15;;;;;;;0.20;0.20;;;;;;;20.30;61.55;102386.78;5049143;28;20033;-72
2023/10/04 01:10:43;;;;;;;0.10;0.10;;;;;;;20.22;62.09;102389.13;5049477;28;20051;-72
2023/10/04 01:13:09;;;;;;;0.20;0.20;;;;;;;20.36;61.20;102387.69;5049655;28;20051;-72
2023/10/04 01:15:39;;;;;;;0.20;0.20;;;;;;;19.71;62.63;102385.59;5049474;28;20115;-72
2023/10/04 01:18:11;;;;;;;0.20;0.20;;;;;;;20.04;62.48;102388.28;5049704;28;20037;-72
2023/10/04 01:20:39;;;;;;;0.20;0.20;;;;;;;19.31;65.71;102398.47;5049572;28;20143;-72
2023/10/04 01:23:05;;;;;;;0.17;0.17;;;;;;;19.78;63.51;102394.41;5049267;28;20121;-72
2023/10/04 01:25:33;;;;;;;0.15;0.15;;;;;;;20.08;62.21;102403.09;5049253;28;20025;-73
2023/10/04 01:27:59;;;;;;;0.10;0.10;;;;;;;20.16;61.38;102399.09;5049103;28;20493;-73
2023/10/04 01:30:26;;;;;;;0.10;0.10;;;;;;;19.83;62.59;102402.66;5049282;28;20401;-72
2023/10/04 01:32:51;;;;;;;0.20;0.20;;;;;;;19.77;62.53;102411.03;5048991;28;20033;-73
2023/10/04 01:35:23;;;;;;;0.20;0.20;;;;;;;19.91;62.96;102409.66;5049072;28;20519;-72
2023/10/04 01:37:49;;;;;;;0.10;0.10;;;;;;;19.58;63.26;102406.88;5048891;28;20151;-73
2023/10/04 01:40:15;;;;;;;0.10;0.10;;;;;;;20.10;62.75;102408.28;5049041;28;20055;-73
2023/10/04 01:42:41;;;;;;;0.10;0.10;;;;;;;19.60;63.83;102412.91;5048946;28;20025;-72
2023/10/04 01:45:11;;;;;;;0.10;0.10;;;;;;;19.72;63.34;102403.59;5049308;28;20028;-73
2023/10/04 01:47:38;;;;;;;0.10;0.10;;;;;;;19.61;64.23;102411.84;5049072;28;20025;-72
2023/10/04 01:50:06;;;;;;;0.20;0.20;;;;;;;19.16;66.31;102411.84;5048667;28;20041;-72
2023/10/04 01:52:31;;;;;;;0.10;0.10;;;;;;;19.98;62.62;102402.94;5048766;28;20037;-71
2023/10/04 01:54:58;;;;;;;0.20;0.20;;;;;;;20.36;61.25;102404.91;5049160;28;20082;-72
2023/10/04 01:57:23;;;;;;;0.10;0.10;;;;;;;19.93;63.33;102399.31;5054579;28;20020;-73
2023/10/04 01:59:49;;;;;;;0.10;0.10;;;;;;;20.33;61.10;102405.38;5068774;28;20075;-72
2023/10/04 02:02:14;;;;;;;0.10;0.10;;;;;;;19.61;63.08;102406.41;5068746;28;20507;-72
2023/10/04 02:04:40;;;;;;;0.20;0.20;;;;;;;20.01;63.17;102401.59;5068895;28;20048;-71
2023/10/04 02:07:05;;;;;;;0.10;0.10;;;;;;;19.32;64.91;102404.78;5053003;28;20488;-72
2023/10/04 02:09:31;;;;;;;0.20;0.20;;;;;;;19.47;64.03;102403.16;5053431;28;20032;-71
2023/10/04 02:11:56;;;;;;;0.20;0.20;;;;;;;19.46;64.25;102398.78;5053447;28;20493;-71
2023/10/04 02:14:21;;;;;;;0.10;0.10;;;;;;;19.86;62.68;102390.44;5052254;28;20041;-71
2023/10/04 02:16:49;;;;;;;0.20;0.20;;;;;;;19.87;62.96;102392.91;5052224;28;20042;-72
2023/10/04 02:19:14;;;;;;;0.20;0.20;;;;;;;19.41;64.54;102397.88;5052910;28;20496;-72
2023/10/04 02:21:39;;;;;;;0.10;0.10;;;;;;;19.33;64.52;102403.72;5052928;28;20037;-71
2023/10/04 02:24:05;;;;;;;0.10;0.10;;;;;;;18.90;66.17;102405.06;5053470;28;20154;-72
2023/10/04 02:26:32;;;;;;;0.30;0.30;;;;;;;18.60;66.46;102406.31;5052695;28;20041;-71
2023/10/04 02:28:58;;;;;;;0.20;0.20;;;;;;;18.74;67.46;102407.72;5052399;28;20033;-72
2023/10/04 02:31:23;;;;;;;0.10;0.10;;;;;;;18.94;67.10;102408.13;5050732;28;20071;-72
2023/10/04 02:33:52;;;;;;;0.20;0.20;;;;;;;19.57;63.47;102400.63;5052609;28;20048;-71
2023/10/04 02:36:17;;;;;;;0.25;0.25;;;;;;;19.51;64.53;102409.78;5053446;28;20025;-72
2023/10/04 02:38:44;;;;;;;0.10;0.10;;;;;;;18.47;67.74;102412.03;5052424;28;20401;-72
2023/10/04 02:41:10;;;;;;;0.20;0.20;;;;;;;19.09;66.03;102413.88;5052311;28;20036;-71
2023/10/04 02:43:37;;;;;;;0.10;0.10;;;;;;;19.21;65.36;102412.75;5052683;28;20025;-71
2023/10/04 02:46:03;;;;;;;0.20;0.20;;;;;;;18.98;65.06;102423.75;5052341;28;20083;-70
2023/10/04 02:48:34;;;;;;;0.13;0.13;;;;;;;18.66;67.16;102421.69;5052528;28;20136;-71
2023/10/04 02:50:59;;;;;;;0.13;0.13;;;;;;;19.03;65.51;102425.72;5052301;28;20086;-72
2023/10/04 02:53:26;;;;;;;0.15;0.15;;;;;;;18.90;65.38;102435.03;5052232;28;20512;-72
2023/10/04 02:55:57;;;;;;;0.10;0.10;;;;;;;18.56;67.82;102430.47;5052088;28;20063;-71
2023/10/04 02:58:22;;;;;;;0.10;0.10;;;;;;;18.49;68.62;102423.50;5064799;28;20083;-72
2023/10/04 03:00:50;;;;;;;0.10;0.10;;;;;;;18.77;66.20;102429.84;5070200;28;20036;-72
2023/10/04 03:03:22;;;;;;;0.20;0.20;;;;;;;18.91;66.15;102423.06;5052364;28;20139;-72
2023/10/04 03:05:51;;;;;;;0.20;0.20;;;;;;;18.74;66.89;102426.78;5051973;28;20040;-72
2023/10/04 03:08:18;;;;;;;0.20;0.20;;;;;;;18.40;67.38;102423.00;5051725;28;20033;-72
2023/10/04 03:10:45;;;;;;;0.13;0.13;;;;;;;18.98;65.78;102433.81;5033396;28;20112;-72
2023/10/04 03:13:19;;;;;;;0.10;0.10;;;;;;;18.64;67.07;102432.00;5051710;28;20122;-71
2023/10/04 03:15:47;;;;;;;0.10;0.10;;;;;;;19.18;65.20;102426.06;5033980;28;20116;-71
2023/10/04 03:18:17;;;;;;;0.20;0.20;;;;;;;19.27;64.15;102439.03;5072343;28;20032;-72
2023/10/04 03:20:54;;;;;;;0.20;0.20;;;;;;;18.67;66.76;102437.78;5071804;28;20033;-72
2023/10/04 03:23:21;;;;;;;0.10;0.10;;;;;;;18.80;66.11;102437.53;5057127;28;20346;-72
2023/10/04 03:25:49;;;;;;;0.20;0.20;;;;;;;19.04;66.18;102438.31;5051320;28;20063;-74
2023/10/04 03:28:15;;;;;;;0.20;0.20;;;;;;;18.72;66.06;102434.34;5051187;28;20052;-72
2023/10/04 03:30:44;;;;;;;0.10;0.10;;;;;;;18.80;66.60;102442.16;5051345;28;20025;-71
2023/10/04 03:33:10;;;;;;;0.10;0.10;;;;;;;19.35;64.24;102440.56;5051585;28;20020;-72
2023/10/04 03:35:39;;;;;;;0.20;0.20;;;;;;;18.76;66.49;102441.81;5051118;28;20128;-71
2023/10/04 03:38:07;;;;;;;0.15;0.15;;;;;;;19.40;63.83;102443.38;5051215;28;20025;-71
2023/10/04 03:40:38;;;;;;;0.10;0.10;;;;;;;19.23;64.42;102439.75;5051248;28;20033;-71
2023/10/04 03:43:06;;;;;;;0.20;0.20;;;;;;;19.24;63.84;102444.97;5051096;28;20029;-71
2023/10/04 03:45:42;;;;;;;0.10;0.10;;;;;;;19.40;64.22;102448.84;5051370;28;20231;-72
2023/10/04 03:48:17;;;;;;;0.20;0.20;;;;;;;19.32;63.39;102456.56;5046318;28;20060;-72
2023/10/04 03:50:50;;;;;;;0.20;0.20;;;;;;;18.69;65.93;102465.63;5044155;28;20049;-72
2023/10/04 03:53:16;;;;;;;0.10;0.10;;;;;;;18.18;68.48;102471.78;5033119;28;20128;-72
2023/10/04 03:55:43;;;;;;;0.20;0.20;;;;;;;18.38;67.66;102469.53;5071219;28;20395;-72
2023/10/04 03:58:12;;;;;;;0.20;0.20;;;;;;;18.52;67.02;102467.41;5063484;28;20033;-72
2023/10/04 04:00:38;;;;;;;0.20;0.20;;;;;;;18.44;67.92;102467.78;5030568;28;20030;-72
2023/10/04 04:03:04;;;;;;;0.10;0.10;;;;;;;18.76;66.66;102468.22;5045432;28;20063;-72
2023/10/04 04:05:30;;;;;;;0.20;0.20;;;;;;;18.20;67.69;102463.41;5050322;28;20424;-72
2023/10/04 04:07:56;;;;;;;0.20;0.20;;;;;;;19.14;65.10;102465.75;5050004;28;20040;-71
2023/10/04 04:10:24;;;;;;;0.10;0.10;;;;;;;18.94;66.00;102468.06;5041160;28;20038;-72
2023/10/04 04:12:50;;;;;;;0.20;0.20;;;;;;;18.93;65.63;102461.78;5045399;28;20059;-72
2023/10/04 04:15:17;;;;;;;0.13;0.13;;;;;;;18.47;66.27;102467.31;5032117;28;20501;-73
2023/10/04 04:17:45;;;;;;;0.10;0.10;;;;;;;18.88;66.20;102467.13;5049744;28;20041;-72
2023/10/04 04:20:16;;;;;;;0.15;0.15;;;;;;;19.30;64.04;102465.00;5050315;28;20106;-72
2023/10/04 04:22:53;;;;;;;0.20;0.20;;;;;;;19.26;65.15;102456.44;5050589;28;20064;-72
2023/10/04 04:25:23;;;;;;;0.20;0.20;;;;;;;18.51;67.68;102454.06;5049735;28;20033;-72
2023/10/04 04:27:50;;;;;;;0.20;0.20;;;;;;;18.69;66.71;102454.72;5049347;28;20539;-73
2023/10/04 04:30:31;;;;;;;0.20;0.20;;;;;;;18.64;66.87;102456.50;5050307;28;20041;-72
2023/10/04 04:32:57;;;;;;;0.10;0.10;;;;;;;18.58;66.70;102457.47;5046114;28;20063;-71
2023/10/04 04:38:09;;;;;;;0.20;0.20;;;;;;;18.66;67.17;102446.22;5030469;28;20116;-72
2023/10/04 04:40:35;;;;;;;0.20;0.20;;;;;;;18.61;67.16;102446.13;5029925;28;20029;-72
2023/10/04 04:46:12;;;;;;;0.17;0.17;;;;;;;18.27;67.30;102437.72;4987785;28;20034;-73
2023/10/04 04:48:38;;;;;;;0.20;0.20;;;;;;;18.47;67.47;102434.66;4987589;28;20053;-73
2023/10/04 04:51:11;;;;;;;0.20;0.20;;;;;;;18.62;66.27;102432.25;4992082;28;20088;-74
2023/10/04 04:53:39;;;;;;;0.20;0.20;;;;;;;18.76;66.23;102438.25;5003447;28;20566;-72
2023/10/04 04:56:07;;;;;;;0.20;0.20;;;;;;;18.35;67.77;102440.06;4999308;28;20494;-62
2023/10/04 04:58:33;;;;;;;0.10;0.10;;;;;;;18.05;68.79;102435.81;5040658;28;20045;-63
2023/10/04 05:01:03;;;;;;;0.30;0.30;;;;;;;18.53;67.30;102441.88;5045817;28;20637;-62
2023/10/04 05:03:28;;;;;;;0.13;0.13;;;;;;;18.05;68.45;102446.69;5046956;28;20094;-62
2023/10/04 05:05:58;;;;;;;0.20;0.20;;;;;;;18.50;66.84;102441.50;5045770;28;20052;-63
2023/10/04 05:08:25;;;;;;;0.10;0.10;;;;;;;18.30;67.20;102448.09;5046375;28;20079;-64
2023/10/04 05:10:51;;;;;;;0.20;0.20;;;;;;;18.28;68.58;102449.41;5040125;28;20124;-61
2023/10/04 05:13:20;;;;;;;0.10;0.10;;;;;;;18.20;68.70;102456.03;5026698;28;20411;-63
2023/10/04 05:15:46;;;;;;;0.20;0.20;;;;;;;18.31;67.28;102465.28;5026692;28;20175;-62
2023/10/04 05:18:21;;;;;;;0.20;0.20;;;;;;;18.26;67.81;102474.16;5026776;28;20598;-63
2023/10/04 05:20:54;;;;;;;0.10;0.10;;;;;;;18.83;66.51;102474.38;5018141;28;20525;-63
2023/10/04 05:23:23;;;;;;;0.30;0.30;;;;;;;18.80;66.02;102472.97;5042334;28;20331;-63
2023/10/04 05:25:50;;;;;;;0.20;0.20;;;;;;;18.99;64.48;102471.72;5053669;28;20069;-62
2023/10/04 05:28:16;;;;;;;0.30;0.30;;;;;;;18.61;66.81;102481.50;5048611;28;20028;-62
2023/10/04 05:30:44;;;;;;;0.20;0.20;;;;;;;17.77;69.44;102484.63;5049003;28;20024;-63
2023/10/04 05:33:15;;;;;;;0.20;0.20;;;;;;;17.97;69.35;102488.66;5051986;28;20054;-62
2023/10/04 05:35:42;;;;;;;0.20;0.20;;;;;;;17.96;69.08;102495.19;5066060;28;20039;-63
2023/10/04 05:38:08;;;;;;;0.20;0.20;;;;;;;18.09;68.84;102503.13;5058663;28;20393;-62
2023/10/04 05:40:38;;;;;;;0.13;0.13;;;;;;;17.82;69.99;102501.06;5055309;28;20036;-63
2023/10/04 05:43:04;;;;;;;0.10;0.10;;;;;;;18.18;69.00;102509.88;5078408;28;20137;-62
2023/10/04 05:45:31;;;;;;;0.20;0.20;;;;;;;17.82;69.90;102512.78;5044717;28;20048;-63
2023/10/04 05:47:57;;;;;;;0.20;0.20;;;;;;;18.54;67.64;102508.84;5077883;28;20071;-64
2023/10/04 05:50:24;;;;;;;0.10;0.10;;;;;;;18.42;67.97;102516.16;5062113;28;20041;-62
2023/10/04 05:52:53;;;;;;;0.20;0.20;;;;;;;17.99;68.85;102510.19;5030676;28;20082;-62
2023/10/04 05:55:20;;;;;;;0.20;0.20;;;;;;;18.53;66.84;102500.94;5049973;28;20021;-63
2023/10/04 05:57:47;;;;;;;0.20;0.20;;;;;;;18.02;68.19;102517.91;5062729;28;20025;-63
2023/10/04 06:03:04;;;;;;;0.20;0.20;;;;;;;17.90;69.74;102528.75;5064668;28;20132;-62
2023/10/04 06:05:32;;;;;;;0.17;0.17;;;;;;;18.15;68.91;102521.22;5069075;28;20119;-62
2023/10/04 06:07:59;;;;;;;0.20;0.20;;;;;;;18.12;67.14;102531.75;5051090;28;20029;-63
2023/10/04 06:10:24;;;;;;;0.20;0.20;;;;;;;17.99;68.92;102526.50;5069393;28;21089;-63
2023/10/04 06:12:53;;;;;;;0.20;0.20;;;;;;;18.56;66.94;102528.50;5069241;28;20024;-61
2023/10/04 06:15:19;;;;;;;0.20;0.20;;;;;;;18.75;66.40;102532.75;5086089;28;20044;-63
2023/10/04 06:17:48;;;;;;;0.20;0.20;;;;;;;18.47;67.34;102540.00;5070877;28;20037;-62
2023/10/04 06:20:25;;;;;;;0.15;0.15;;;;;;;18.23;68.21;102539.94;5067560;28;20060;-62
2023/10/04 06:22:59;;;;;;;0.30;0.30;;;;;;;18.53;66.61;102533.59;5069071;28;20047;-61
2023/10/04 06:25:27;;;;;;;0.20;0.20;;;;;;;18.24;68.54;102538.88;5069260;28;20376;-62
2023/10/04 06:27:55;;;;;;;0.10;0.10;;;;;;;18.84;66.66;102542.25;5069677;28;20052;-62
2023/10/04 06:30:22;;;;;;;0.10;0.10;;;;;;;18.48;67.34;102541.63;5068928;28;20507;-62
2023/10/04 06:32:52;;;;;;;0.20;0.20;;;;;;;18.36;68.18;102544.31;5068137;28;20053;-61
2023/10/04 06:35:22;;;;;;;0.10;0.10;;;;;;;18.26;68.25;102549.50;5068792;28;20120;-62
2023/10/04 06:37:50;;;;;;;0.10;0.10;;;;;;;18.45;67.95;102548.41;5069357;28;20056;-62
2023/10/04 06:40:19;;;;;;;0.20;0.20;;;;;;;18.86;66.77;102559.19;5068755;28;20546;-62
2023/10/04 06:42:45;;;;;;;0.17;0.17;;;;;;;18.35;68.50;102562.56;5068979;28;20029;-62
2023/10/04 06:45:15;;;;;;;0.10;0.10;;;;;;;18.22;69.05;102560.03;5069416;28;20113;-61
2023/10/04 06:47:47;;;;;;;0.20;0.20;;;;;;;18.89;66.10;102560.56;5068416;28;20123;-62
2023/10/04 06:50:14;;;;;;;0.10;0.10;;;;;;;18.48;66.69;102569.69;5068520;28;20104;-61
2023/10/04 06:52:44;;;;;;;0.17;0.17;;;;;;;18.29;68.30;102568.94;5072377;28;20139;-63
2023/10/04 06:55:11;;;;;;;0.17;0.17;;;;;;;19.27;65.22;102561.72;5072706;28;20056;-62
2023/10/04 06:57:39;;;;;;;0.20;0.20;;;;;;;19.65;63.64;102558.41;5068299;28;20016;-62
2023/10/04 07:00:15;;;;;;;0.20;0.20;;;;;;;19.10;64.84;102571.69;5072423;28;20045;-62
2023/10/04 07:02:53;;;;;;;0.20;0.20;;;;;;;19.85;62.96;102569.69;5072402;28;20086;-62
2023/10/04 07:05:21;;;;;;;0.10;0.10;;;;;;;19.66;63.63;102562.78;5072313;28;20037;-62
2023/10/04 07:07:47;;;;;;;0.10;0.10;;;;;;;19.53;64.26;102568.53;5069283;28;20572;-63
2023/10/04 07:10:15;;;;;;;0.10;0.10;;;;;;;19.55;63.15;102574.59;5071955;28;20024;-62
2023/10/04 07:12:43;;;;;;;0.15;0.15;;;;;;;19.65;63.53;102572.06;5072168;28;20514;-63
2023/10/04 07:15:10;;;;;;;0.20;0.20;;;;;;;18.67;67.14;102576.69;5069483;28;20038;-61
2023/10/04 07:17:38;;;;;;;0.10;0.10;;;;;;;19.84;63.97;102575.41;5070692;28;20572;-63
2023/10/04 07:20:07;;;;;;;0.17;0.17;;;;;;;19.32;65.37;102577.31;5068720;28;20558;-64
2023/10/04 07:22:33;;;;;;;0.10;0.10;;;;;;;19.45;65.00;102570.81;5070833;28;20129;-63
2023/10/04 07:24:59;;;;;;;0.20;0.20;;;;;;;19.63;64.36;102576.94;5072255;28;20111;-61
2023/10/04 07:27:24;;;;;;;0.10;0.10;;;;;;;19.59;64.71;102580.38;5053254;28;20519;-62
2023/10/04 07:29:50;;;;;;;0.20;0.20;;;;;;;20.39;61.38;102575.59;5054233;28;20037;-61
2023/10/04 07:32:16;;;;;;;0.20;0.20;;;;;;;19.33;65.69;102579.03;5070155;28;20071;-62
2023/10/04 07:34:42;;;;;;;0.20;0.20;;;;;;;19.42;65.12;102587.66;5051860;28;20040;-62
2023/10/04 07:37:08;;;;;;;0.20;0.20;;;;;;;19.38;65.52;102583.75;5051689;28;20033;-62
2023/10/04 07:39:34;;;;;;;0.15;0.15;;;;;;;19.35;66.14;102582.34;5052522;28;20029;-62
2023/10/04 07:41:59;;;;;;;0.20;0.20;;;;;;;19.70;64.25;102572.16;5077230;28;20461;-62
2023/10/04 07:44:26;;;;;;;0.10;0.10;;;;;;;18.93;68.15;102589.84;5078911;28;20522;-61
2023/10/04 07:46:52;;;;;;;0.20;0.20;;;;;;;19.62;65.40;102582.59;5086063;28;20112;-62
2023/10/04 07:49:17;;;;;;;0.10;0.10;;;;;;;19.94;64.99;102583.78;5079397;28;20039;-61
2023/10/04 07:51:43;;;;;;;0.10;0.10;;;;;;;20.49;63.10;102590.25;5082014;28;20452;-61
2023/10/04 07:54:09;;;;;;;0.15;0.15;;;;;;;20.24;64.28;102595.28;5080742;28;20090;-62
2023/10/04 07:56:34;;;;;;;0.15;0.15;;;;;;;20.32;63.89;102602.25;5083043;28;20208;-62
2023/10/04 07:59:01;;;;;;;0.10;0.10;;;;;;;20.24;64.60;102595.28;5051825;28;20047;-61
2023/10/04 08:01:27;;;;;;;0.20;0.20;;;;;;;20.42;63.01;102594.22;5070230;28;20122;-62
2023/10/04 08:03:52;;;;;;;0.10;0.10;;;;;;;19.94;65.43;102601.00;5071640;28;20387;-61
2023/10/04 08:06:18;;;;;;;0.10;0.10;;;;;;;20.55;63.30;102596.63;5069799;28;20044;-62
2023/10/04 08:08:45;;;;;;;0.20;0.20;;;;;;;20.42;63.61;102603.22;5070260;28;20047;-63
2023/10/04 08:11:11;;;;;;;0.13;0.13;;;;;;;20.40;63.46;102608.09;5070492;28;20032;-61
2023/10/04 08:13:38;;;;;;;0.20;0.20;;;;;;;21.10;61.40;102600.22;5070623;28;20021;-61
2023/10/04 08:16:03;;;;;;;0.10;0.10;;;;;;;20.29;63.66;102605.44;5052212;28;20833;-61
2023/10/04 08:18:29;;;;;;;0.13;0.13;;;;;;;20.77;62.43;102608.44;5051692;28;20037;-62
2023/10/04 08:20:54;;;;;;;0.20;0.20;;;;;;;20.69;62.14;102626.09;5070066;28;20032;-61
2023/10/04 08:23:21;;;;;;;0.20;0.20;;;;;;;20.10;64.29;102611.13;5069959;28;20403;-62
2023/10/04 08:25:49;;;;;;;0.10;0.10;;;;;;;20.84;62.23;102609.09;5070605;28;20016;-62
2023/10/04 08:28:15;;;;;;;0.20;0.20;;;;;;;20.54;61.90;102620.34;5069309;28;20043;-61
2023/10/04 08:30:41;;;;;;;0.10;0.10;;;;;;;20.99;61.50;102609.34;5051514;28;20067;-63
2023/10/04 08:33:08;;;;;;;0.10;0.10;;;;;;;20.62;63.15;102614.47;5069079;28;20044;-62
2023/10/04 08:35:36;;;;;;;0.20;0.20;;;;;;;21.73;59.25;102607.84;5065701;28;20037;-62
2023/10/04 08:38:04;;;;;;;0.10;0.10;;;;;;;21.06;61.33;102609.16;5072626;28;20457;-61
2023/10/04 08:40:30;;;;;;;0.10;0.10;;;;;;;21.76;58.50;102605.44;5068639;28;20605;-63
2023/10/04 08:42:58;;;;;;;0.10;0.10;;;;;;;20.77;61.44;102614.75;5068690;28;20032;-62
2023/10/04 08:45:27;;;;;;;0.10;0.10;;;;;;;21.30;61.01;102610.59;5068821;28;20115;-62
2023/10/04 08:47:57;;;;;;;0.10;0.10;;;;;;;21.40;59.93;102614.31;5068578;28;20460;-62
2023/10/04 08:50:40;;;;;;;0.10;0.10;;;;;;;22.30;58.18;102613.66;5062650;28;20911;-62
2023/10/04 08:53:37;;;;;;;0.10;0.10;;;;;;;21.55;59.57;102605.44;5065149;28;20123;-62
2023/10/04 08:56:11;;;;;;;0.10;0.10;;;;;;;21.22;61.02;102621.97;5068805;28;20491;-62
2023/10/04 08:58:38;;;;;;;0.10;0.10;;;;;;;21.31;59.86;102613.06;5064412;28;20095;-62
2023/10/04 09:01:06;;;;;;;0.10;0.10;;;;;;;21.15;60.64;102615.88;5068779;28;20028;-63
2023/10/04 09:03:33;;;;;;;0.10;0.10;;;;;;;20.98;61.01;102613.97;5068655;28;20086;-62
2023/10/04 09:05:59;;;;;;;0.10;0.10;;;;;;;21.73;60.33;102607.84;5067974;28;20039;-61
2023/10/04 09:08:25;;;;;;;0.10;0.10;;;;;;;21.94;58.52;102608.91;5068202;28;20328;-61
2023/10/04 09:10:54;;;;;;;0.10;0.10;;;;;;;22.00;59.04;102603.25;5069188;28;20109;-63
2023/10/04 09:13:20;;;;;;;0.10;0.10;;;;;;;22.23;58.43;102602.13;5068236;28;20564;-62
2023/10/04 09:15:45;;;;;;;0.10;0.10;;;;;;;21.82;59.28;102601.69;5049135;28;20048;-62
2023/10/04 09:18:11;;;;;;;0.10;0.10;;;;;;;22.10;58.32;102599.78;5067113;28;20485;-64
2023/10/04 09:20:36;;;;;;;0.10;0.10;;;;;;;22.14;58.50;102599.00;5066664;28;20036;-62
2023/10/04 09:23:15;;;;;;;0.10;0.10;;;;;;;22.14;59.81;102604.50;5068624;28;20036;-62
2023/10/04 09:25:40;;;;;;;0.10;0.10;;;;;;;22.63;57.42;102603.31;5067722;28;20052;-63
2023/10/04 09:28:10;;;;;;;0.10;0.10;;;;;;;22.62;58.44;102600.84;5067440;28;20534;-64
2023/10/04 09:30:36;;;;;;;0.10;0.10;;;;;;;23.18;55.35;102597.34;5065584;28;20032;-63
2023/10/04 09:33:23;;;;;;;0.10;0.10;;;;;;;23.39;55.67;102598.28;5069608;28;20039;-63
2023/10/04 09:35:49;;;;;;;0.10;0.10;;;;;;;22.83;56.16;102591.66;5066499;28;20044;-64
2023/10/04 09:38:20;;;;;;;0.08;0.08;;;;;;;23.07;54.72;102592.06;5067526;28;20092;-63
2023/10/04 09:40:56;;;;;;;0.10;0.10;;;;;;;22.91;55.56;102585.69;5076058;28;20032;-64
2023/10/04 09:43:35;;;;;;;0.10;0.10;;;;;;;22.65;55.42;102586.59;5034059;28;20109;-64
2023/10/04 09:46:00;;;;;;;0.10;0.10;;;;;;;22.95;54.41;102594.19;5067499;28;20060;-63
2023/10/04 09:48:33;;;;;;;0.00;0.00;;;;;;;23.80;53.74;102585.53;5068142;28;20489;-64
2023/10/04 09:51:07;;;;;;;0.10;0.10;;;;;;;24.11;52.05;102593.59;5067877;28;20099;-63
2023/10/04 09:53:36;;;;;;;0.00;0.00;;;;;;;24.02;50.87;102591.63;5067750;28;20063;-63
2023/10/04 09:56:02;;;;;;;0.00;0.00;;;;;;;23.04;53.81;102598.91;5068084;28;20024;-64
2023/10/04 09:58:32;;;;;;;0.10;0.10;;;;;;;24.55;49.94;102595.81;5081388;28;21061;-63
2023/10/04 10:01:04;;;;;;;0.00;0.00;;;;;;;23.38;53.02;102593.91;5087961;28;20036;-63
2023/10/04 10:03:36;;;;;;;0.08;0.08;;;;;;;23.80;52.50;102594.63;5088869;28;20032;-64
2023/10/04 10:06:03;;;;;;;0.10;0.10;;;;;;;23.08;54.40;102591.81;5068687;28;20047;-63
2023/10/04 10:08:34;;;;;;;0.10;0.10;;;;;;;22.48;55.51;102588.63;5065083;28;20823;-62
2023/10/04 10:11:00;;;;;;;0.10;0.10;;;;;;;23.05;53.53;102592.34;5064657;28;20052;-63
2023/10/04 10:13:26;;;;;;;0.10;0.10;;;;;;;22.38;56.56;102597.59;5064641;28;20051;-64
2023/10/04 10:15:53;;;;;;;0.10;0.10;;;;;;;22.19;56.79;102606.47;5065314;28;20045;-61
2023/10/04 10:18:19;;;;;;;0.10;0.10;;;;;;;22.73;55.29;102598.97;5064419;28;20033;-63
2023/10/04 10:20:46;;;;;;;0.10;0.10;;;;;;;23.01;54.89;102595.88;5063441;28;20036;-62
2023/10/04 10:23:15;;;;;;;0.10;0.10;;;;;;;22.41;57.06;102601.72;5063871;28;20061;-62
2023/10/04 10:26:17;;;;;;;0.00;0.00;;;;;;;23.57;53.71;102599.75;5065625;28;20459;-63
2023/10/04 10:28:45;;;;;;;0.10;0.10;;;;;;;23.56;52.26;102601.66;5067660;28;20037;-71
2023/10/04 10:31:18;;;;;;;0.10;0.10;;;;;;;23.56;52.23;102601.66;5065332;28;20215;-72
2023/10/04 10:33:44;;;;;;;0.10;0.10;;;;;;;23.79;51.67;102597.59;5051605;28;20071;-73
2023/10/04 10:36:19;;;;;;;0.00;0.00;;;;;;;22.75;54.60;102594.88;5052354;28;20380;-72
2023/10/04 10:38:49;;;;;;;0.10;0.10;;;;;;;23.44;52.21;102601.91;5051826;28;20052;-74
2023/10/04 10:41:34;;;;;;;0.00;0.00;;;;;;;23.60;53.11;102601.94;5051580;28;20037;-72
2023/10/04 10:44:17;;;;;;;0.10;0.10;;;;;;;22.99;53.75;102601.63;5051715;28;20103;-71
2023/10/04 10:47:01;;;;;;;0.10;0.10;;;;;;;22.33;55.18;102596.69;5031322;28;20037;-72
2023/10/04 10:49:39;;;;;;;0.10;0.10;;;;;;;22.43;55.24;102600.38;5033014;28;20057;-72
2023/10/04 10:52:10;;;;;;;0.00;0.00;;;;;;;22.71;54.45;102604.72;5045826;28;20162;-72
2023/10/04 10:54:36;;;;;;;0.10;0.10;;;;;;;23.87;52.39;102597.91;5046370;28;20086;-72
2023/10/04 10:57:05;;;;;;;0.00;0.00;;;;;;;23.17;53.72;102609.44;5075284;28;20191;-71
2023/10/04 10:59:32;;;;;;;0.10;0.10;;;;;;;24.08;52.09;102601.53;5059917;28;20496;-72
2023/10/04 11:01:58;;;;;;;0.10;0.10;;;;;;;22.87;53.49;102606.50;5062874;28;20352;-72
2023/10/04 11:04:24;;;;;;;0.10;0.10;;;;;;;23.04;54.12;102603.56;5062036;28;20040;-72
2023/10/04 11:06:50;;;;;;;0.03;0.03;;;;;;;22.63;54.83;102603.31;5052441;28;20028;-70
2023/10/04 11:09:17;;;;;;;0.10;0.10;;;;;;;22.98;54.46;102610.09;5071408;28;20036;-71
2023/10/04 11:11:42;;;;;;;0.10;0.10;;;;;;;22.29;56.12;102601.88;5052305;28;20025;-74
2023/10/04 11:14:09;;;;;;;0.10;0.10;;;;;;;22.67;55.94;102598.94;5063093;28;20040;-72
2023/10/04 11:16:34;;;;;;;0.10;0.10;;;;;;;23.26;54.09;102601.50;5061702;28;20037;-73
2023/10/04 11:19:04;;;;;;;0.10;0.10;;;;;;;23.28;54.48;102597.41;5050459;28;20035;-72
2023/10/04 11:21:29;;;;;;;0.10;0.10;;;;;;;23.87;53.09;102595.16;5037749;28;20049;-72
2023/10/04 11:23:55;;;;;;;0.00;0.00;;;;;;;22.55;55.39;102589.22;5032941;28;20039;-62
2023/10/04 11:26:21;;;;;;;0.10;0.10;;;;;;;23.30;53.49;102583.41;5081547;28;20391;-63
2023/10/04 11:28:49;;;;;;;0.10;0.10;;;;;;;23.13;54.03;102588.28;5061557;28;20057;-62
2023/10/04 11:31:15;;;;;;;0.00;0.00;;;;;;;22.87;52.81;102592.78;5050759;28;20029;-62
2023/10/04 11:33:55;;;;;;;0.10;0.10;;;;;;;23.29;51.06;102595.50;5050720;28;20033;-62
2023/10/04 11:36:24;;;;;;;0.03;0.03;;;;;;;23.10;51.84;102578.66;5045771;28;20021;-62
2023/10/04 11:38:51;;;;;;;0.10;0.10;;;;;;;23.09;53.40;102596.22;5049196;28;20037;-63